Time;durP1;ratioP1;P1;durP2;ratioP2;P2;SDS_P1;SDS_P2;PMS_P1;PMS_P2;Temp;Humidity;BMP_temperature;BMP_pressure;BME280_temperature;BME280_humidity;BME280_pressure;Samples;Min_cycle;Max_cycle;Signal;HPM_P1;HPM_P2
2022/04/14 00:00:30;;;;;;;7.40;6.63;;;;;;;11.53;58.00;101097.31;7398963;19;20019;-66
2022/04/14 00:02:58;;;;;;;12.50;7.55;;;;;;;11.47;58.16;101092.19;7398886;19;20026;-66
2022/04/14 00:05:26;;;;;;;10.40;7.40;;;;;;;11.42;58.17;101102.78;7398874;19;20014;-66
2022/04/14 00:07:54;;;;;;;9.90;7.57;;;;;;;11.38;58.37;101093.22;7398739;19;20039;-66
2022/04/14 00:10:23;;;;;;;11.02;7.53;;;;;;;11.34;58.34;101088.94;7398192;19;20487;-66
2022/04/14 00:12:53;;;;;;;10.00;7.50;;;;;;;11.31;58.55;101091.63;7401458;19;20032;-66
2022/04/14 00:15:21;;;;;;;11.77;8.10;;;;;;;11.27;58.57;101097.84;7398281;19;20432;-65
2022/04/14 00:17:49;;;;;;;8.88;7.18;;;;;;;11.22;58.77;101088.28;7401296;19;20018;-65
2022/04/14 00:20:18;;;;;;;9.18;6.95;;;;;;;11.18;58.94;101091.84;7398403;19;20018;-66
2022/04/14 00:22:46;;;;;;;7.47;6.55;;;;;;;11.14;59.20;101094.56;7398402;19;20031;-66
2022/04/14 00:25:14;;;;;;;11.52;6.40;;;;;;;11.08;59.13;101100.78;7401105;19;20022;-66
2022/04/14 00:27:42;;;;;;;7.82;6.07;;;;;;;11.01;59.16;101093.94;7398061;19;20018;-65
2022/04/14 00:30:13;;;;;;;7.32;5.72;;;;;;;10.99;59.34;101098.34;7398743;19;20019;-66
2022/04/14 00:32:41;;;;;;;8.43;6.85;;;;;;;10.94;59.47;101108.91;7401243;19;20026;-66
2022/04/14 00:35:10;;;;;;;9.45;7.07;;;;;;;10.91;59.44;101103.72;7398200;19;20011;-65
2022/04/14 00:37:39;;;;;;;9.13;7.28;;;;;;;10.86;59.62;101100.31;7400827;19;20022;-65
2022/04/14 00:40:08;;;;;;;10.80;7.70;;;;;;;10.81;59.68;101100.38;7397377;19;20486;-65
2022/04/14 00:42:37;;;;;;;9.07;7.63;;;;;;;10.78;59.72;101102.19;7400438;19;20040;-65
2022/04/14 00:45:06;;;;;;;12.10;7.70;;;;;;;10.74;59.64;101097.00;7400318;19;20018;-65
2022/04/14 00:47:38;;;;;;;8.48;6.95;;;;;;;10.74;60.11;101098.75;7400245;19;20024;-65
2022/04/14 00:50:07;;;;;;;10.88;7.97;;;;;;;10.70;60.06;101102.31;7399771;19;20017;-65
2022/04/14 00:52:35;;;;;;;11.05;8.30;;;;;;;10.67;60.34;101103.25;7400053;19;20039;-66
2022/04/14 00:55:04;;;;;;;10.55;7.95;;;;;;;10.64;60.34;101094.56;7394743;19;20022;-65
2022/04/14 00:57:32;;;;;;;11.85;8.13;;;;;;;10.60;60.65;101093.72;7397810;19;20026;-65
2022/04/14 01:00:00;;;;;;;11.88;8.48;;;;;;;10.56;60.67;101098.19;7400287;19;20473;-66
2022/04/14 01:02:29;;;;;;;10.75;8.05;;;;;;;10.50;60.73;101098.28;7401388;19;20032;-66
2022/04/14 01:05:01;;;;;;;11.00;8.07;;;;;;;10.48;61.08;101101.81;7397663;19;20018;-66
2022/04/14 01:07:31;;;;;;;10.02;8.07;;;;;;;10.45;61.03;101101.84;7400092;19;20032;-66
2022/04/14 01:09:59;;;;;;;10.05;8.20;;;;;;;10.40;61.03;101097.53;7396972;19;20022;-65
2022/04/14 01:12:38;;;;;;;11.43;8.05;;;;;;;10.35;61.14;101098.47;7397463;19;20025;-65
2022/04/14 01:15:12;;;;;;;24.20;8.07;;;;;;;10.30;61.24;101106.41;7396996;19;20031;-66
2022/04/14 01:17:41;;;;;;;10.35;7.88;;;;;;;10.24;61.41;101102.13;7397172;19;20032;-66
2022/04/14 01:20:14;;;;;;;10.75;7.75;;;;;;;10.20;61.32;101105.69;7398522;19;20059;-66
2022/04/14 01:23:03;;;;;;;10.95;8.50;;;;;;;10.16;61.52;101098.75;7397259;19;20015;-66
2022/04/14 01:25:35;;;;;;;11.80;7.70;;;;;;;10.12;61.49;101097.03;7396872;19;20379;-65
2022/04/14 01:28:03;;;;;;;12.57;8.60;;;;;;;10.08;61.52;101100.59;7397126;19;20017;-66
2022/04/14 01:30:32;;;;;;;9.52;8.30;;;;;;;10.04;61.73;101109.41;7397839;19;20035;-66
2022/04/14 01:33:00;;;;;;;11.35;8.30;;;;;;;9.99;61.80;101106.84;7398821;19;20018;-65
2022/04/14 01:35:28;;;;;;;12.65;8.82;;;;;;;9.96;61.92;101101.66;7395840;19;20011;-65
2022/04/14 01:37:57;;;;;;;10.60;8.35;;;;;;;9.92;62.10;101099.94;7396461;19;20025;-65
2022/04/14 01:40:25;;;;;;;10.35;8.13;;;;;;;9.85;62.14;101096.53;7397582;19;20019;-65
2022/04/14 01:42:56;;;;;;;13.30;8.30;;;;;;;9.85;62.19;101103.53;7396337;19;20019;-66
2022/04/14 01:45:24;;;;;;;11.50;7.80;;;;;;;9.81;62.49;101121.06;7395948;19;20482;-66
2022/04/14 01:47:52;;;;;;;12.40;8.52;;;;;;;9.73;62.54;101120.25;7396215;19;20035;-65
2022/04/14 01:50:21;;;;;;;10.48;8.52;;;;;;;9.68;62.63;101122.97;7397352;19;20019;-65
2022/04/14 01:52:49;;;;;;;12.52;8.18;;;;;;;9.64;63.03;101117.78;7396498;19;20023;-65
2022/04/14 01:55:17;;;;;;;12.25;7.88;;;;;;;9.60;63.01;101119.56;7396732;19;20051;-66
2022/04/14 01:57:46;;;;;;;9.80;7.68;;;;;;;9.60;62.97;101127.41;7398025;19;20023;-66
2022/04/14 02:00:18;;;;;;;15.40;10.80;;;;;;;9.58;63.27;101114.34;7395413;19;20379;-65
2022/04/14 02:02:46;;;;;;;9.27;8.20;;;;;;;9.59;62.90;101121.31;7398029;19;20027;-65
2022/04/14 02:05:14;;;;;;;9.30;8.25;;;;;;;9.59;63.21;101118.69;7395770;19;20022;-65
2022/04/14 02:07:42;;;;;;;8.95;7.60;;;;;;;9.58;63.27;101122.19;7396674;19;20015;-66
2022/04/14 02:10:13;;;;;;;10.27;7.53;;;;;;;9.57;63.19;101125.69;7395043;19;20367;-66
2022/04/14 02:12:41;;;;;;;9.25;7.53;;;;;;;9.56;63.41;101125.72;7397954;19;20090;-66
2022/04/14 02:15:10;;;;;;;11.02;8.35;;;;;;;9.49;63.52;101117.06;7396343;19;20019;-66
2022/04/14 02:17:41;;;;;;;10.30;8.25;;;;;;;9.51;63.55;101123.16;7398089;19;20035;-67
2022/04/14 02:20:10;;;;;;;9.55;7.95;;;;;;;9.48;63.60;101117.94;7398758;19;20019;-66
2022/04/14 02:22:42;;;;;;;10.60;8.43;;;;;;;9.45;63.74;101121.47;7398497;19;20025;-68
2022/04/14 02:25:12;;;;;;;9.52;8.10;;;;;;;9.40;63.73;101112.81;7395617;19;20018;-66
2022/04/14 02:27:40;;;;;;;13.35;8.43;;;;;;;9.39;63.89;101121.53;7395157;19;20035;-67
2022/04/14 02:30:10;;;;;;;10.70;8.50;;;;;;;9.36;63.75;101120.69;7395025;19;20035;-67
2022/04/14 02:32:41;;;;;;;11.65;9.15;;;;;;;9.31;64.06;101117.25;7394960;19;20031;-67
2022/04/14 02:35:23;;;;;;;11.20;8.95;;;;;;;9.28;63.98;101118.16;7393897;19;20701;-67
2022/04/14 02:37:51;;;;;;;12.07;8.35;;;;;;;9.23;64.15;101118.19;7394887;19;20019;-67
2022/04/14 02:40:19;;;;;;;11.20;8.60;;;;;;;9.20;64.26;101130.44;7394663;19;20031;-67
2022/04/14 02:42:48;;;;;;;9.45;8.52;;;;;;;9.16;64.28;101128.75;7396501;19;20027;-66
2022/04/14 02:45:16;;;;;;;10.30;9.10;;;;;;;9.12;64.49;101134.03;7395052;19;20018;-67
2022/04/14 02:47:47;;;;;;;10.00;8.10;;;;;;;9.10;64.60;101140.16;7395416;19;20018;-67
2022/04/14 02:50:15;;;;;;;11.00;9.35;;;;;;;9.07;64.79;101148.03;7396042;19;20039;-66
2022/04/14 02:52:44;;;;;;;13.13;10.00;;;;;;;9.01;65.37;101148.97;7396187;19;20022;-67
2022/04/14 02:55:12;;;;;;;12.68;10.15;;;;;;;8.97;65.18;101155.09;7394261;19;20022;-66
2022/04/14 02:57:40;;;;;;;14.82;11.00;;;;;;;8.94;65.67;101152.50;7395786;19;20035;-66
2022/04/14 03:00:11;;;;;;;12.57;9.68;;;;;;;8.93;65.82;101156.88;7393740;19;20581;-67
2022/04/14 03:02:40;;;;;;;13.40;10.35;;;;;;;8.93;65.97;101164.75;7396264;19;20014;-66
2022/04/14 03:05:12;;;;;;;15.25;9.75;;;;;;;8.94;67.15;101162.97;7394572;19;20023;-67
2022/04/14 03:07:41;;;;;;;16.45;10.43;;;;;;;8.90;66.20;101175.22;7395831;19;20021;-66
2022/04/14 03:10:10;;;;;;;12.45;9.15;;;;;;;8.85;66.29;101161.31;7394517;19;20384;-66
2022/04/14 03:12:42;;;;;;;12.35;10.20;;;;;;;8.85;65.97;101160.44;7393895;19;20018;-66
2022/04/14 03:15:11;;;;;;;12.20;10.00;;;;;;;8.86;66.12;101152.56;7394900;19;20018;-66
2022/04/14 03:17:39;;;;;;;10.98;9.80;;;;;;;8.86;65.94;101152.56;7392273;19;20103;-66
2022/04/14 03:20:11;;;;;;;10.23;9.20;;;;;;;8.88;66.07;101148.19;7392467;19;20015;-66
2022/04/14 03:22:40;;;;;;;13.00;9.70;;;;;;;8.90;65.85;101146.44;7393827;19;20014;-65
2022/04/14 03:25:10;;;;;;;13.90;10.02;;;;;;;8.90;65.80;101153.44;7395173;19;20019;-65
2022/04/14 03:27:39;;;;;;;10.68;9.57;;;;;;;8.91;65.86;101168.22;7393373;19;20014;-65
2022/04/14 03:30:10;;;;;;;10.10;8.73;;;;;;;8.88;65.92;101161.25;7393222;19;20482;-65
2022/04/14 03:32:42;;;;;;;13.13;9.95;;;;;;;8.85;66.00;101168.28;7394849;19;20014;-64
2022/04/14 03:35:13;;;;;;;12.77;9.23;;;;;;;8.80;66.08;101177.03;7394396;19;20011;-66
2022/04/14 03:37:48;;;;;;;11.48;9.65;;;;;;;8.77;66.69;101163.97;7392059;19;20031;-66
2022/04/14 03:40:16;;;;;;;11.10;9.63;;;;;;;8.74;66.23;101165.75;7392313;19;20478;-65
2022/04/14 03:42:44;;;;;;;12.38;9.25;;;;;;;8.71;66.30;101171.88;7392676;19;20027;-66
2022/04/14 03:45:13;;;;;;;10.98;9.85;;;;;;;8.70;66.40;101166.66;7392670;19;20018;-65
2022/04/14 03:47:41;;;;;;;11.15;9.95;;;;;;;8.66;66.77;101162.31;7392443;19;20039;-65
2022/04/14 03:50:12;;;;;;;13.23;10.45;;;;;;;8.63;66.77;101171.03;7391714;19;20368;-65
2022/04/14 03:52:40;;;;;;;15.02;10.52;;;;;;;8.56;66.94;101162.38;7392494;19;20026;-65
2022/04/14 03:55:10;;;;;;;12.88;10.10;;;;;;;8.57;66.84;101168.50;7392253;19;20474;-66
2022/04/14 03:57:38;;;;;;;14.90;11.18;;;;;;;8.55;66.74;101176.31;7394112;19;20022;-65
2022/04/14 04:00:08;;;;;;;13.80;10.70;;;;;;;8.52;67.39;101176.34;7391854;19;20035;-66
2022/04/14 04:02:37;;;;;;;12.75;10.70;;;;;;;8.51;67.82;101179.00;7392122;19;20032;-65
2022/04/14 04:05:06;;;;;;;12.95;11.40;;;;;;;8.50;67.72;101175.50;7393907;19;20035;-66
2022/04/14 04:07:37;;;;;;;15.00;11.57;;;;;;;8.53;68.33;101177.22;7393739;19;20026;-65
2022/04/14 04:10:06;;;;;;;13.07;11.52;;;;;;;8.55;67.99;101178.94;7393374;19;20039;-66
2022/04/14 04:12:35;;;;;;;15.23;11.60;;;;;;;8.58;67.95;101178.94;7391951;19;20023;-66
2022/04/14 04:15:03;;;;;;;14.85;12.20;;;;;;;8.61;68.29;101189.38;7393198;19;20070;-66
2022/04/14 04:17:31;;;;;;;13.15;11.45;;;;;;;8.61;67.91;101184.13;7392908;19;20478;-66
2022/04/14 04:19:59;;;;;;;17.35;12.35;;;;;;;8.68;67.96;101194.56;7391572;19;20040;-66
2022/04/14 04:22:27;;;;;;;14.75;11.60;;;;;;;8.69;68.25;101198.91;7391878;19;20036;-66
2022/04/14 04:24:59;;;;;;;19.67;12.32;;;;;;;8.74;68.60;101205.84;7391292;19;20028;-66
2022/04/14 04:27:27;;;;;;;16.80;12.75;;;;;;;8.77;68.64;101212.81;7393120;19;20018;-65
2022/04/14 04:29:55;;;;;;;15.02;12.20;;;;;;;8.80;68.39;101205.81;7394956;19;20035;-66
2022/04/14 04:32:24;;;;;;;15.65;12.20;;;;;;;8.83;68.43;101215.38;7399576;19;20048;-66
2022/04/14 04:34:52;;;;;;;15.45;11.50;;;;;;;8.83;68.72;101212.75;7399212;19;20026;-66
2022/04/14 04:37:20;;;;;;;14.50;12.63;;;;;;;8.90;68.66;101222.31;7396523;19;20027;-67
2022/04/14 04:39:48;;;;;;;18.40;13.25;;;;;;;8.95;69.07;101231.00;7399459;19;20034;-67
2022/04/14 04:42:19;;;;;;;15.13;12.70;;;;;;;8.98;69.13;101227.50;7397544;19;20031;-66
2022/04/14 04:44:47;;;;;;;17.23;12.02;;;;;;;9.02;69.21;101234.44;7400643;19;20027;-65
2022/04/14 04:47:15;;;;;;;15.90;12.15;;;;;;;9.06;69.54;101238.78;7399960;19;20039;-66
2022/04/14 04:49:44;;;;;;;15.10;12.75;;;;;;;9.09;69.61;101237.91;7397047;19;20018;-66
2022/04/14 04:52:12;;;;;;;16.02;12.30;;;;;;;9.13;69.84;101239.59;7396644;19;20030;-66
2022/04/14 04:54:40;;;;;;;18.85;12.82;;;;;;;9.19;69.66;101239.56;7398883;19;20039;-66
2022/04/14 04:57:09;;;;;;;15.13;11.68;;;;;;;9.24;70.05;101231.66;7396335;19;20031;-66
2022/04/14 04:59:39;;;;;;;15.07;12.07;;;;;;;9.31;69.80;101235.94;7398507;19;20336;-64
2022/04/14 05:02:08;;;;;;;14.60;11.32;;;;;;;9.38;70.30;101229.78;7399659;19;20026;-66
2022/04/14 05:04:36;;;;;;;16.83;10.88;;;;;;;9.45;70.09;101238.44;7399429;19;20048;-65
2022/04/14 05:07:04;;;;;;;43.47;26.33;;;;;;;9.55;69.86;101234.84;7395970;19;20035;-66
2022/04/14 05:09:33;;;;;;;13.55;10.48;;;;;;;9.64;70.04;101233.03;7396618;19;20026;-66
2022/04/14 05:12:01;;;;;;;14.65;10.73;;;;;;;9.72;69.84;101239.09;7396946;19;20015;-66
2022/04/14 05:14:29;;;;;;;13.60;10.85;;;;;;;9.77;69.88;101227.66;7398675;19;20478;-65
2022/04/14 05:17:00;;;;;;;13.95;10.90;;;;;;;9.91;69.78;101237.13;7396580;19;20023;-66
2022/04/14 05:19:28;;;;;;;14.65;10.35;;;;;;;9.99;69.75;101232.66;7396716;19;20022;-67
2022/04/14 05:21:57;;;;;;;14.65;10.20;;;;;;;10.07;69.64;101227.31;7398447;19;20035;-62
2022/04/14 05:24:25;;;;;;;19.90;11.75;;;;;;;10.14;69.69;101234.25;7398432;19;20015;-64
2022/04/14 05:26:53;;;;;;;15.82;9.75;;;;;;;10.22;69.58;101235.03;7398432;19;20017;-64
2022/04/14 05:29:21;;;;;;;14.48;10.80;;;;;;;10.29;69.63;101238.44;7396070;19;20479;-64
2022/04/14 05:31:49;;;;;;;12.50;9.68;;;;;;;10.35;69.60;101235.72;7395533;19;20018;-64
2022/04/14 05:34:20;;;;;;;13.30;9.55;;;;;;;10.41;69.56;101248.81;7395673;19;20026;-63
2022/04/14 05:36:48;;;;;;;16.02;10.48;;;;;;;10.47;69.68;101245.22;7396069;19;20006;-65
2022/04/14 05:39:16;;;;;;;14.63;9.70;;;;;;;10.53;69.58;101241.66;7395163;19;20514;-64
2022/04/14 05:41:45;;;;;;;18.90;9.65;;;;;;;10.58;69.55;101237.22;7393850;19;20019;-64
2022/04/14 05:44:13;;;;;;;13.23;9.35;;;;;;;10.63;69.36;101242.38;7395286;19;20018;-64
2022/04/14 05:46:41;;;;;;;13.52;9.43;;;;;;;10.68;69.35;101261.53;7397940;19;20031;-64
2022/04/14 05:49:09;;;;;;;13.73;9.18;;;;;;;10.73;69.40;101252.72;7395654;19;20019;-64
2022/04/14 05:51:40;;;;;;;15.18;9.07;;;;;;;10.79;69.21;101248.28;7395367;19;20373;-65
2022/04/14 05:54:08;;;;;;;12.73;8.80;;;;;;;10.83;69.45;101248.22;7396538;19;20027;-65
2022/04/14 05:56:36;;;;;;;15.60;9.00;;;;;;;10.90;69.16;101255.09;7396243;19;20474;-65
2022/04/14 05:59:04;;;;;;;11.15;8.23;;;;;;;10.96;69.10;101250.66;7397487;19;20436;-64
2022/04/14 06:01:32;;;;;;;10.40;8.13;;;;;;;11.01;68.91;101236.56;7395572;19;20035;-64
2022/04/14 06:04:00;;;;;;;15.02;9.30;;;;;;;11.10;68.74;101246.06;7397200;19;20134;-64
2022/04/14 06:06:28;;;;;;;11.02;8.43;;;;;;;11.17;68.77;101252.97;7396983;19;20023;-63
2022/04/14 06:08:59;;;;;;;10.77;8.40;;;;;;;11.23;68.58;101252.88;7397628;19;20026;-64
2022/04/14 06:11:28;;;;;;;13.25;8.85;;;;;;;11.31;68.45;101258.00;7395248;19;20019;-64
2022/04/14 06:13:56;;;;;;;11.63;8.70;;;;;;;11.38;68.38;101264.00;7397093;19;20078;-64
2022/04/14 06:16:24;;;;;;;13.52;8.52;;;;;;;11.41;68.44;101275.31;7394617;19;20019;-64
2022/04/14 06:18:53;;;;;;;11.98;8.88;;;;;;;11.46;68.35;101264.75;7394811;19;20010;-65
2022/04/14 06:21:21;;;;;;;13.13;9.98;;;;;;;11.50;68.43;101265.53;7394957;19;20029;-64
2022/04/14 06:23:49;;;;;;;16.15;11.60;;;;;;;11.53;68.46;101268.97;7394712;19;20037;-64
2022/04/14 06:26:20;;;;;;;13.20;9.55;;;;;;;11.55;68.52;101264.56;7396641;19;20044;-64
2022/04/14 06:28:48;;;;;;;14.00;10.02;;;;;;;11.53;68.75;101266.34;7394981;19;20044;-63
2022/04/14 06:31:16;;;;;;;14.10;10.07;;;;;;;11.50;68.78;101252.41;7395308;19;20018;-64
2022/04/14 06:33:45;;;;;;;14.82;9.23;;;;;;;11.49;68.89;101263.81;7396605;19;20014;-64
2022/04/14 06:36:13;;;;;;;12.73;9.32;;;;;;;11.46;69.09;101277.88;7394071;19;20043;-65
2022/04/14 06:38:42;;;;;;;13.52;9.02;;;;;;;11.47;68.82;101265.59;7396554;19;20036;-67
2022/04/14 06:41:10;;;;;;;14.02;9.00;;;;;;;11.47;68.83;101266.47;7394736;19;20018;-64
2022/04/14 06:43:40;;;;;;;13.15;8.93;;;;;;;11.49;68.88;101262.06;7396873;19;20031;-63
2022/04/14 06:46:08;;;;;;;12.45;8.75;;;;;;;11.53;68.86;101265.50;7394878;19;20023;-64
2022/04/14 06:48:37;;;;;;;14.77;10.23;;;;;;;11.56;68.59;101268.94;7396149;19;20039;-64
2022/04/14 06:51:05;;;;;;;12.15;9.00;;;;;;;11.62;68.53;101261.84;7394279;19;20035;-64
2022/04/14 06:53:33;;;;;;;11.23;8.85;;;;;;;11.65;68.37;101257.41;7396422;19;20018;-65
2022/04/14 06:56:01;;;;;;;13.55;9.30;;;;;;;11.69;68.37;101252.94;7394616;19;20051;-65
2022/04/14 06:58:30;;;;;;;12.18;8.77;;;;;;;11.73;68.22;101252.84;7395730;19;20039;-64
2022/04/14 07:01:00;;;;;;;13.77;9.70;;;;;;;11.79;68.14;101254.53;7394598;19;20014;-64
2022/04/14 07:03:29;;;;;;;10.27;8.18;;;;;;;11.85;68.03;101259.66;7394458;19;20019;-64
2022/04/14 07:06:00;;;;;;;13.45;8.68;;;;;;;11.90;67.99;101255.19;7393791;19;20032;-64
2022/04/14 07:08:28;;;;;;;11.18;9.02;;;;;;;11.98;67.85;101256.81;7395936;19;20025;-64
2022/04/14 07:10:59;;;;;;;12.55;8.63;;;;;;;12.03;67.77;101252.31;7393384;19;20023;-65
2022/04/14 07:13:27;;;;;;;13.20;8.82;;;;;;;12.10;67.64;101240.81;7395479;19;20044;-64
2022/04/14 07:15:57;;;;;;;15.32;9.68;;;;;;;12.18;67.39;101244.16;7393691;19;20039;-64
2022/04/14 07:18:28;;;;;;;13.63;9.32;;;;;;;12.26;67.52;101241.38;7394530;19;20460;-65
2022/04/14 07:20:56;;;;;;;13.57;8.57;;;;;;;12.35;67.08;101241.16;7393321;19;20031;-64
2022/04/14 07:23:25;;;;;;;12.88;8.43;;;;;;;12.45;66.88;101236.56;7392656;19;20018;-64
2022/04/14 07:25:53;;;;;;;11.30;8.75;;;;;;;12.54;66.82;101239.00;7393726;19;20047;-64
2022/04/14 07:28:21;;;;;;;11.50;8.90;;;;;;;12.62;66.75;101230.91;7392551;19;20014;-65
2022/04/14 07:30:49;;;;;;;11.90;9.13;;;;;;;12.73;66.45;101240.38;7392510;19;20032;-65
2022/04/14 07:33:17;;;;;;;12.32;9.77;;;;;;;12.82;66.50;101240.16;7392590;19;20031;-64
2022/04/14 07:35:50;;;;;;;26.10;17.13;;;;;;;12.93;66.27;101246.03;7391822;19;20503;-65
2022/04/14 07:38:25;;;;;;;17.80;10.18;;;;;;;13.06;66.08;101256.28;7391195;19;20016;-64
2022/04/14 07:41:00;;;;;;;18.05;11.50;;;;;;;13.18;65.90;101254.22;7392829;19;20022;-64
2022/04/14 07:43:29;;;;;;;17.75;10.38;;;;;;;13.31;65.57;101262.66;7392534;19;20022;-65
2022/04/14 07:45:57;;;;;;;12.32;9.30;;;;;;;13.38;65.31;101249.38;7391611;19;20490;-64
2022/04/14 07:48:25;;;;;;;13.65;9.18;;;;;;;13.54;65.00;101250.72;7392226;19;20035;-64
2022/04/14 07:50:56;;;;;;;14.02;9.43;;;;;;;13.64;64.66;101252.19;7392436;19;20026;-65
2022/04/14 07:53:24;;;;;;;14.10;10.02;;;;;;;13.75;64.52;101251.91;7392465;19;20018;-64
2022/04/14 07:55:53;;;;;;;13.02;9.35;;;;;;;13.86;64.06;101259.53;7392032;19;20018;-64
2022/04/14 07:58:21;;;;;;;13.43;9.27;;;;;;;13.92;64.02;101251.44;7393944;19;20025;-66
2022/04/14 08:00:50;;;;;;;14.65;9.02;;;;;;;14.02;63.81;101255.56;7392807;19;20490;-64
2022/04/14 08:03:18;;;;;;;17.63;9.27;;;;;;;14.09;63.44;101258.91;7392173;19;20019;-64
2022/04/14 08:05:49;;;;;;;11.18;8.32;;;;;;;14.18;63.26;101258.63;7396291;19;20019;-64
2022/04/14 08:08:21;;;;;;;14.27;9.02;;;;;;;14.28;62.89;101255.72;7401630;19;20127;-65
2022/04/14 08:10:51;;;;;;;11.38;8.93;;;;;;;14.37;62.94;101265.16;7398317;19;20014;-65
2022/04/14 08:13:20;;;;;;;14.68;8.85;;;;;;;14.45;62.48;101261.38;7398375;19;20032;-65
2022/04/14 08:15:50;;;;;;;14.25;8.68;;;;;;;14.53;62.29;101263.78;7400792;19;20014;-65
2022/04/14 08:18:18;;;;;;;11.18;7.90;;;;;;;14.61;62.10;101260.94;7398596;19;20044;-65
2022/04/14 08:20:46;;;;;;;10.82;8.68;;;;;;;14.68;61.71;101251.91;7397713;19;20070;-65
2022/04/14 08:23:14;;;;;;;10.93;7.80;;;;;;;14.80;61.75;101261.25;7398038;19;20025;-65
2022/04/14 08:25:45;;;;;;;10.50;8.52;;;;;;;14.89;61.40;101268.03;7397782;19;20019;-65
2022/04/14 08:28:13;;;;;;;11.82;7.75;;;;;;;15.01;61.09;101269.41;7400202;19;20020;-64
2022/04/14 08:30:41;;;;;;;12.95;7.32;;;;;;;15.11;61.02;101277.00;7397400;19;20032;-64
2022/04/14 08:33:12;;;;;;;13.13;6.65;;;;;;;15.23;60.45;101283.66;7398273;19;20023;-64
2022/04/14 08:35:40;;;;;;;14.07;7.28;;;;;;;15.34;60.32;101280.66;7397855;19;20034;-65
2022/04/14 08:38:10;;;;;;;12.32;7.50;;;;;;;15.44;59.77;101273.28;7396344;19;20475;-65
2022/04/14 08:40:39;;;;;;;10.02;6.25;;;;;;;15.57;59.77;101279.00;7398676;19;20025;-65
2022/04/14 08:43:12;;;;;;;10.10;7.13;;;;;;;15.69;59.63;101280.41;7397084;19;20026;-65
2022/04/14 08:45:47;;;;;;;8.45;4.85;;;;;;;15.78;58.83;101277.41;7397658;19;20026;-64
2022/04/14 08:48:16;;;;;;;6.63;4.68;;;;;;;15.87;59.01;101277.16;7399703;19;20074;-64
2022/04/14 08:50:46;;;;;;;9.30;5.25;;;;;;;15.91;58.66;101275.22;7396945;19;20357;-68
2022/04/14 08:53:15;;;;;;;6.20;3.92;;;;;;;15.95;58.22;101287.47;7396282;19;20553;-65
2022/04/14 08:55:43;;;;;;;7.55;3.65;;;;;;;15.96;58.12;101287.41;7399248;19;20027;-64
2022/04/14 08:58:19;;;;;;;7.45;4.13;;;;;;;15.98;57.77;101289.97;7397096;19;20481;-64
2022/04/14 09:00:48;;;;;;;6.28;3.83;;;;;;;15.99;58.07;101283.78;7398345;19;20057;-65
2022/04/14 09:03:17;;;;;;;7.45;4.18;;;;;;;16.03;58.44;101290.69;7399555;19;20028;-66
2022/04/14 09:05:45;;;;;;;6.45;4.63;;;;;;;16.10;58.40;101294.84;7396695;19;20026;-64
2022/04/14 09:08:14;;;;;;;5.75;4.22;;;;;;;16.13;57.92;101300.00;7396508;19;20022;-64
2022/04/14 09:10:42;;;;;;;8.88;4.50;;;;;;;16.15;57.66;101292.03;7396543;19;20015;-64
2022/04/14 09:13:17;;;;;;;8.27;4.22;;;;;;;16.16;58.03;101296.38;7396065;19;20490;-64
2022/04/14 09:15:45;;;;;;;6.68;3.92;;;;;;;16.20;57.91;101298.03;7396235;19;20491;-64
2022/04/14 09:18:13;;;;;;;6.85;4.65;;;;;;;16.23;58.04;101294.41;7396435;19;20106;-64
2022/04/14 09:20:42;;;;;;;8.32;4.88;;;;;;;16.28;58.03;101297.75;7396922;19;20035;-64
2022/04/14 09:23:18;;;;;;;6.75;3.80;;;;;;;16.28;57.69;101300.38;7398065;19;20433;-64
2022/04/14 09:25:47;;;;;;;4.53;3.03;;;;;;;16.33;57.76;101294.91;7396695;19;20022;-64
2022/04/14 09:28:20;;;;;;;5.53;3.45;;;;;;;16.32;57.19;101317.03;7398384;19;20029;-63
2022/04/14 09:31:06;;;;;;;5.60;2.97;;;;;;;16.29;57.14;101308.25;7396445;19;20018;-63
2022/04/14 09:33:35;;;;;;;4.10;2.70;;;;;;;16.31;57.43;101310.84;7395941;19;20034;-64
2022/04/14 09:36:13;;;;;;;4.22;2.33;;;;;;;16.34;57.23;101313.41;7395861;19;20031;-64
2022/04/14 09:38:58;;;;;;;5.40;2.40;;;;;;;16.37;56.99;101310.63;7395595;19;20010;-64
2022/04/14 09:41:32;;;;;;;3.90;2.67;;;;;;;16.41;57.17;101314.03;7395454;19;20014;-68
2022/04/14 09:44:05;;;;;;;6.13;2.92;;;;;;;16.39;57.47;101315.84;7396426;19;20015;-63
2022/04/14 09:46:33;;;;;;;4.20;2.15;;;;;;;16.43;57.21;101313.06;7398410;19;20022;-65
2022/04/14 09:49:06;;;;;;;3.60;2.35;;;;;;;16.53;57.32;101304.75;7395626;19;20434;-63
2022/04/14 09:51:35;;;;;;;3.13;2.08;;;;;;;16.56;57.04;101307.28;7396273;19;20434;-66
2022/04/14 09:54:11;;;;;;;2.85;2.25;;;;;;;16.56;57.10;101309.94;7395455;19;20019;-64
2022/04/14 09:56:52;;;;;;;4.68;2.40;;;;;;;16.59;56.84;101293.91;7395583;19;20352;-64
2022/04/14 09:59:24;;;;;;;2.13;1.48;;;;;;;16.65;57.22;101304.28;7397912;19;20587;-64
2022/04/14 10:02:10;;;;;;;3.30;1.75;;;;;;;16.74;57.10;101303.06;7395216;19;20014;-64
2022/04/14 10:04:41;;;;;;;2.85;2.05;;;;;;;16.81;56.80;101301.03;7395244;19;20023;-65
2022/04/14 10:07:11;;;;;;;2.10;1.88;;;;;;;16.87;56.55;101304.34;7397614;19;20031;-64
2022/04/14 10:09:41;;;;;;;3.80;2.10;;;;;;;16.92;56.82;101305.03;7395426;19;20032;-64
2022/04/14 10:12:32;;;;;;;3.50;2.25;;;;;;;16.93;56.51;101292.66;7397172;19;20014;-64
2022/04/14 10:15:09;;;;;;;2.58;2.13;;;;;;;16.97;56.93;101285.44;7397079;19;20086;-64
2022/04/14 10:17:40;;;;;;;2.63;2.10;;;;;;;17.03;56.76;101296.66;7395213;19;20022;-64
2022/04/14 10:20:12;;;;;;;3.25;2.20;;;;;;;17.04;56.44;101289.56;7395825;19;20405;-64
2022/04/14 10:22:42;;;;;;;3.58;1.75;;;;;;;17.05;56.42;101294.81;7396892;19;20014;-64
2022/04/14 10:25:12;;;;;;;3.25;1.70;;;;;;;17.05;56.30;101289.50;7394181;19;20015;-64
2022/04/14 10:27:40;;;;;;;2.92;1.27;;;;;;;17.04;56.40;101302.84;7396177;19;20074;-63
2022/04/14 10:30:11;;;;;;;2.25;1.20;;;;;;;17.00;56.16;101302.09;7394413;19;20018;-64
2022/04/14 10:32:42;;;;;;;1.85;1.20;;;;;;;16.97;56.60;101312.78;7396049;19;20014;-65
2022/04/14 10:35:12;;;;;;;3.17;1.40;;;;;;;16.96;56.85;101310.22;7394262;19;20014;-69
2022/04/14 10:37:46;;;;;;;2.65;1.00;;;;;;;16.96;56.80;101318.16;7393869;19;20031;-69
2022/04/14 10:40:15;;;;;;;4.95;1.15;;;;;;;17.03;56.75;101311.69;7394701;19;20022;-64
2022/04/14 10:42:58;;;;;;;2.33;1.20;;;;;;;17.04;56.74;101306.34;7396173;19;20015;-65
2022/04/14 10:45:29;;;;;;;2.28;0.98;;;;;;;17.05;56.33;101310.72;7395300;19;20022;-65
2022/04/14 10:48:01;;;;;;;2.30;0.80;;;;;;;17.07;56.06;101310.66;7393871;19;20421;-64
2022/04/14 10:50:32;;;;;;;1.67;0.70;;;;;;;17.09;56.00;101312.31;7395298;19;20032;-65
2022/04/14 10:53:08;;;;;;;2.58;1.00;;;;;;;17.17;56.13;101317.31;7395807;19;20014;-64
2022/04/14 10:55:37;;;;;;;1.83;1.20;;;;;;;17.21;56.35;101310.97;7394988;19;20374;-65
2022/04/14 10:58:06;;;;;;;2.75;1.13;;;;;;;17.22;56.28;101312.69;7394260;19;20033;-64
2022/04/14 11:00:40;;;;;;;3.42;1.33;;;;;;;17.27;56.36;101312.50;7395409;19;20043;-65
2022/04/14 11:03:13;;;;;;;1.75;0.90;;;;;;;17.34;56.13;101313.97;7394276;19;20019;-64
2022/04/14 11:05:47;;;;;;;3.03;1.30;;;;;;;17.38;56.20;101310.28;7395353;19;20047;-64
2022/04/14 11:08:24;;;;;;;2.03;1.25;;;;;;;17.41;56.30;101315.47;7392851;19;20509;-63
2022/04/14 11:11:11;;;;;;;1.80;1.38;;;;;;;17.48;55.49;101312.53;7394399;19;20015;-64
2022/04/14 11:14:09;;;;;;;2.90;1.10;;;;;;;17.49;55.89;101328.41;7395666;19;20023;-65
2022/04/14 11:16:44;;;;;;;2.20;1.20;;;;;;;17.44;55.90;101322.44;7392275;19;20022;-65
2022/04/14 11:19:28;;;;;;;2.65;1.30;;;;;;;17.38;56.41;101320.88;7393172;19;20014;-66
2022/04/14 11:22:08;;;;;;;1.63;1.20;;;;;;;17.36;56.42;101328.06;7394922;19;20038;-65
2022/04/14 11:24:41;;;;;;;1.80;1.40;;;;;;;17.35;56.84;101321.00;7394975;19;20025;-65
2022/04/14 11:27:17;;;;;;;2.60;1.23;;;;;;;17.32;56.99;101334.38;7394019;19;20014;-68
2022/04/14 11:29:47;;;;;;;4.15;1.40;;;;;;;17.31;56.53;101337.09;7393885;19;20377;-64
2022/04/14 11:32:37;;;;;;;2.53;1.58;;;;;;;17.26;57.26;101331.97;7394081;19;20023;-65
2022/04/14 11:35:13;;;;;;;2.22;1.33;;;;;;;17.27;57.21;101341.66;7394688;19;20039;-65